To NAV CANADA Home Page Login to a new session Search on AWWS site Disclaimer Vers la page française équivalente Tips FAQ What's new on the site To the Forecasts and Observations / NOTAM section To "File a Flight Plan" website Publications and other links Update of the User's profile FIC Telephone Numbers My Weather Data Folder Route Weather Data Regional Weather Data Local Weather Data To the Forecasts and Observations / NOTAM section
Request Generated 08/19/2022 at 02:56:18 UTC . Weather information available at that time is displayed.

METAR/TAF

LANSDOWNE HOUSE/ON    (show WxCam)

SPECI CYLH 190241Z AUTO 04005KT 6SM RA BR OVC140 18/18 A2984 RMK PCPN 3.8MM PAST HR SLP111 DENSITY ALT 1600FT=
SPECI CYLH 190226Z AUTO 05007KT 020V080 5SM RA BR OVC140 18/18 A2985 RMK PCPN 2.5MM PAST HR SLP114 DENSITY ALT 1500FT=
METAR CYLH 190200Z AUTO 01008G16KT 340V040 6SM RA BR FEW026 BKN049 OVC140 18/18 A2985 RMK LTNG DIST NE PCPN 2.0MM PAST HR SLP114 DEN
SITY ALT 1500FT=
SPECI CYLH 190156Z AUTO 01008G16KT 320V030 4SM RA BR FEW024 BKN046 BKN055 OVC140 18/18 A2984 RMK LTNG DIST NE PCPN 2.0MM PAST HR SLP
112 DENSITY ALT 1600FT=
SPECI CYLH 190150Z AUTO 36007G15KT 320V020 5SM +RA BR FEW022 BKN046 OVC055 19/18 A2984 RMK LTNG DIST NE PCPN 1.3MM PAST HR SLP110 DE
NSITY ALT 1600FT=
SPECI CYLH 190149Z AUTO 35007G15KT 320V020 6SM RA BR FEW022 BKN046 OVC055 19/17 A2984 RMK LTNG DIST NE PCPN 0.8MM PAST HR SLP110 DEN
SITY ALT 1700FT=
SPECI CYLH 190102Z AUTO VRB02KT 9SM FEW076 BKN100 OVC120 21/17 A2981 RMK LTNG DIST N SLP101 DENSITY ALT 1900FT=
METAR CYLH 190100Z AUTO VRB03KT 9SM -RA FEW076 BKN100 OVC120 21/17 A2981 RMK LTNG DIST N SLP100 DENSITY ALT 1900FT=
SPECI CYLH 190042Z AUTO 34008KT 310V020 9SM -RA FEW055 SCT080 OVC100 21/17 A2981 RMK LTNG DIST NE PRESRR SLP100 DENSITY ALT 1900FT=
METAR CYLH 190000Z AUTO VRB02KT 9SM FEW060 SCT089 BKN110 23/16 A2980 RMK SLP095 DENSITY ALT 2100FT=

CYLH - No TAF is issued for this station

Your time UTC time
Weather data provided by Environment Canada and NAV CANADA